AirNav   Bose ProFlight Series 2 Headset
 
 622 users online  

05M Mountain Point Medical Center Helipad Heliport
Lehi, Utah, USA

GOING TO LEHI?


FAA INFORMATION EFFECTIVE 30 JANUARY 2020

Location

FAA Identifier: 05M
Lat/Long: 40-25-29.0000N 111-52-49.0000W
40-25.483333N 111-52.816667W
40.4247222,-111.8802778
(estimated)
Elevation: 4348 ft. / 1325 m (estimated)
From city: 1 mile NW of LEHI, UT
Time zone: UTC -7 (UTC -6 during Daylight Saving Time)
Zip code: 84043

Heliport Operations

Heliport use: Private use. Permission required prior to landing
Activation date: 12/2016
Control tower: no
ARTCC: SALT LAKE CITY CENTER
FSS: CEDAR CITY FLIGHT SERVICE STATION
Attendance: 
Segmented circle: no

Heliport Communications

WX AWOS-3 at U42 (13 nm NW): 134.425 (801-562-0271)
WX AWOS-3PT at PVU (14 nm SE): 135.175 (801-373-9782)
WX AWOS-2 at SPK (19 nm SE): 119.275 (801-804-5801)

Nearby radio navigation aids

VOR radial/distance  VOR name  Freq  Var
FFUr001/9.4FAIRFIELD VORTAC116.6016E
PVUr315/14.5PROVO VOR/DME108.4015E
TCHr154/25.9WASATCH VORTAC116.8016E

Heliport Services

Runway Information

Helipad H1

Dimensions: 40 x 40 ft. / 12 x 12 m
Surface: concrete
Traffic pattern: leftleft

Heliport Ownership and Management from official FAA records

Ownership: Privately-owned

Additional Remarks

FOR CD CTC SALT LAKE ARTCC AT 801-320-2568.

Instrument Procedures

There are no published instrument procedures at 05M.

Some nearby airports with instrument procedures:

U42 - South Valley Regional Airport (13 nm NW)
KPVU - Provo Municipal Airport (14 nm SE)
KSPK - Spanish Fork Airport Springville-Woodhouse Field (19 nm SE)
KHCR - Heber Valley Airport (21 nm E)
KSLC - Salt Lake City International Airport (22 nm N)
 
Loc | Ops | Rwys | IFR | FBO | Links
Com | Nav | Svcs | Stats | Notes
Aerial photo
No photo
 
Airport distance calculator
Flying to Mountain Point Medical Center Helipad Heliport? Find the distance to fly.

From to 05M

Sunrise and sunset
Times for 25-Feb-2020
 Local
(UTC-7)
 Zulu
(UTC)
Morning civil twilight06:4113:41
Sunrise07:0814:08
Sunset18:1301:13
Evening civil twilight18:4101:41

Current date and time
Zulu (UTC)  25-Feb-2020 11:39:26
Local (UTC-7)  25-Feb-2020 04:39:26
 
METAR
KU42 
13nm NW 
251115Z AUTO 00000KT 10SM CLR M04/M06 A3038 RMK AO1 T10371057
KPVU 
15nm SE 
251056Z AUTO 01007KT 10SM CLR M02/M08 A3037 RMK AO2 SLP301 T10221083 FZRANO
KHCR 
21nm E 
251115Z AUTO 00000KT 10SM CLR M08/M12 A3032 RMK AO2
KSLC 
22nm N 
251054Z 08004KT 10SM FEW060 M03/M08 A3037 RMK AO2 SLP297 T10281078
KTVY 
24nm NW 
251115Z AUTO 12005KT 10SM CLR M06/M08 A3039 RMK AO2
TAF
KPVU 
15nm SE 
250520Z 2506/2606 34011G17KT P6SM SCT050 FM250700 32009KT P6SM FEW050 FM260000 31008KT P6SM SCT150
NOTAMs
Click for the latest NOTAMs
NOTAMs are issued by the DoD/FAA and will open in a separate window not controlled by AirNav.

 

 
 

Would you like to see your business listed on this page?

 If your business provides an interesting product or service to pilots, flight crews, aircraft, or users of the Mountain Point Medical Center Helipad Heliport, you should consider listing it here.  To start the listing process, click on the button below
 
Add a business
 

Other Pages about Mountain Point Medical Center Helipad Heliport

Update a link
 
Copyright © AirNav, LLC. All rights reserved. Privacy Policy  Contact